Time;durP1;ratioP1;P1;durP2;ratioP2;P2;SDS_P1;SDS_P2;PMS_P1;PMS_P2;Temp;Humidity;BMP_temperature;BMP_pressure;BME280_temperature;BME280_humidity;BME280_pressure;Samples;Min_cycle;Max_cycle;Signal;HPM_P1;HPM_P2
2021/01/10 00:00:36;;;;;;;;;;;3.50;99.90;;;;;;5049636;28;19924;-64
2021/01/10 00:03:41;;;;;;;;;;;3.50;99.90;;;;;;5052165;28;19919;-65
2021/01/10 00:06:45;;;;;;;;;;;3.60;99.90;;;;;;5051449;28;19924;-65
2021/01/10 00:09:49;;;;;;;;;;;3.50;99.90;;;;;;5051803;28;20290;-64
2021/01/10 00:12:56;;;;;;;;;;;3.50;99.90;;;;;;5038645;28;19927;-65
2021/01/10 00:16:01;;;;;;;;;;;3.40;99.90;;;;;;5051250;28;20050;-64
2021/01/10 00:19:05;;;;;;;;;;;3.40;99.90;;;;;;5052103;28;19923;-65
2021/01/10 00:22:10;;;;;;;;;;;3.50;99.90;;;;;;5051480;28;19923;-65
2021/01/10 00:25:13;;;;;;;;;;;3.50;99.90;;;;;;5051647;28;19936;-65
2021/01/10 00:28:18;;;;;;;;;;;3.50;99.90;;;;;;5039416;28;19920;-64
2021/01/10 00:31:26;;;;;;;;;;;3.40;99.90;;;;;;5051346;28;20418;-65
2021/01/10 00:34:30;;;;;;;;;;;3.40;99.90;;;;;;5051848;28;19920;-65
2021/01/10 00:37:33;;;;;;;;;;;3.30;99.90;;;;;;5051234;28;20417;-65
2021/01/10 00:40:37;;;;;;;;;;;3.30;99.90;;;;;;5051575;28;19924;-64
2021/01/10 00:43:41;;;;;;;;;;;3.30;99.90;;;;;;5050025;28;19940;-65
2021/01/10 00:46:46;;;;;;;;;;;3.30;99.90;;;;;;5050943;28;19928;-64
2021/01/10 00:49:49;;;;;;;;;;;3.30;99.90;;;;;;5051529;28;19943;-62
2021/01/10 00:52:54;;;;;;;;;;;3.40;99.90;;;;;;5038943;28;19936;-64
2021/01/10 00:55:58;;;;;;;;;;;3.30;99.90;;;;;;5051721;28;20307;-65
2021/01/10 00:59:02;;;;;;;;;;;3.30;99.90;;;;;;5027293;28;19919;-65
2021/01/10 01:02:07;;;;;;;;;;;3.30;99.90;;;;;;5038481;28;19923;-63
2021/01/10 01:05:11;;;;;;;;;;;3.30;99.90;;;;;;5051713;28;19923;-64
2021/01/10 01:08:14;;;;;;;;;;;3.00;99.90;;;;;;5038594;28;19920;-65
2021/01/10 01:11:28;;;;;;;;;;;3.10;99.90;;;;;;5040100;28;19940;-65
2021/01/10 01:14:32;;;;;;;;;;;3.20;99.90;;;;;;5037039;28;19923;-64
2021/01/10 01:17:36;;;;;;;;;;;3.10;99.90;;;;;;5050561;28;19928;-64
2021/01/10 01:20:40;;;;;;;;;;;3.20;99.90;;;;;;5050389;28;19971;-65
2021/01/10 01:23:44;;;;;;;;;;;3.10;99.90;;;;;;5050715;28;19924;-65
2021/01/10 01:26:49;;;;;;;;;;;3.10;99.90;;;;;;5050705;28;20295;-64
2021/01/10 01:29:56;;;;;;;;;;;3.00;99.90;;;;;;5037010;28;19920;-65
2021/01/10 01:33:01;;;;;;;;;;;3.10;99.90;;;;;;5050429;28;19919;-65
2021/01/10 01:36:08;;;;;;;;;;;3.20;99.90;;;;;;5050214;28;19924;-65
2021/01/10 01:39:12;;;;;;;;;;;3.20;99.90;;;;;;5050224;28;19919;-64
2021/01/10 01:42:16;;;;;;;;;;;3.20;99.90;;;;;;5050206;28;19943;-64
2021/01/10 01:45:20;;;;;;;;;;;3.20;99.90;;;;;;5038555;28;19928;-66
2021/01/10 01:48:25;;;;;;;;;;;3.20;99.90;;;;;;5049692;28;19920;-65
2021/01/10 01:51:29;;;;;;;;;;;3.30;99.90;;;;;;5047719;28;19920;-64
2021/01/10 01:54:33;;;;;;;;;;;3.40;99.90;;;;;;5041312;28;19939;-65
2021/01/10 01:57:38;;;;;;;;;;;3.40;99.90;;;;;;5046171;28;19924;-65
2021/01/10 02:00:42;;;;;;;;;;;3.50;99.90;;;;;;5039839;28;19928;-65
2021/01/10 02:03:47;;;;;;;;;;;3.40;99.90;;;;;;5049974;28;19944;-66
2021/01/10 02:06:55;;;;;;;;;;;3.50;99.90;;;;;;5050356;28;20418;-65
2021/01/10 02:10:11;;;;;;;;;;;3.60;99.90;;;;;;5049911;28;19919;-65
2021/01/10 02:13:15;;;;;;;;;;;3.60;99.90;;;;;;5037217;28;19923;-64
2021/01/10 02:16:19;;;;;;;;;;;3.60;99.90;;;;;;5049986;28;19924;-65
2021/01/10 02:19:34;;;;;;;;;;;3.40;99.90;;;;;;5049654;28;19924;-65
2021/01/10 02:22:50;;;;;;;;;;;3.50;99.90;;;;;;5049325;28;19927;-65
2021/01/10 02:25:54;;;;;;;;;;;3.40;99.90;;;;;;5049910;28;19920;-65
2021/01/10 02:28:58;;;;;;;;;;;3.20;99.90;;;;;;5049476;28;19920;-65
2021/01/10 02:32:05;;;;;;;;;;;3.30;99.90;;;;;;5049749;28;19920;-65
2021/01/10 02:35:10;;;;;;;;;;;3.30;99.90;;;;;;5049705;28;20390;-64
2021/01/10 02:38:34;;;;;;;;;;;3.10;99.90;;;;;;5049088;28;19920;-64
2021/01/10 02:41:53;;;;;;;;;;;3.30;99.90;;;;;;5049397;28;19924;-65
2021/01/10 02:45:02;;;;;;;;;;;3.20;99.90;;;;;;5049690;28;20398;-65
2021/01/10 02:48:08;;;;;;;;;;;3.20;99.90;;;;;;5049413;28;19920;-66
2021/01/10 02:51:12;;;;;;;;;;;3.30;99.90;;;;;;5049874;28;19920;-65
2021/01/10 02:54:17;;;;;;;;;;;3.30;99.90;;;;;;5049900;28;19920;-64
2021/01/10 02:57:23;;;;;;;;;;;3.30;99.90;;;;;;5049910;28;19987;-65
2021/01/10 03:00:29;;;;;;;;;;;3.30;99.90;;;;;;5048822;28;20298;-65
2021/01/10 03:03:33;;;;;;;;;;;3.40;99.90;;;;;;5049093;28;19920;-65
2021/01/10 03:06:37;;;;;;;;;;;3.50;99.90;;;;;;5049754;28;19923;-65
2021/01/10 03:09:42;;;;;;;;;;;3.30;99.90;;;;;;5048676;28;19924;-65
2021/01/10 03:12:46;;;;;;;;;;;3.10;99.90;;;;;;5049261;28;20418;-64
2021/01/10 03:15:51;;;;;;;;;;;3.10;99.90;;;;;;5048893;28;19924;-64
2021/01/10 03:18:55;;;;;;;;;;;3.00;99.90;;;;;;5048948;28;19987;-65
2021/01/10 03:21:59;;;;;;;;;;;3.10;99.90;;;;;;5048959;28;19944;-65
2021/01/10 03:25:04;;;;;;;;;;;3.20;99.90;;;;;;5047383;28;19920;-65
2021/01/10 03:28:08;;;;;;;;;;;3.20;99.90;;;;;;5039033;28;19936;-65
2021/01/10 03:31:12;;;;;;;;;;;3.30;99.90;;;;;;5051594;28;19935;-65
2021/01/10 03:34:16;;;;;;;;;;;3.30;99.90;;;;;;5052729;28;19927;-64
2021/01/10 03:37:20;;;;;;;;;;;3.40;99.90;;;;;;5049060;28;19916;-65
2021/01/10 03:40:24;;;;;;;;;;;3.40;99.90;;;;;;5046045;28;20293;-63
2021/01/10 03:43:28;;;;;;;;;;;3.40;99.90;;;;;;5052572;28;20314;-65
2021/01/10 03:46:32;;;;;;;;;;;3.50;99.90;;;;;;5049609;28;19920;-63
2021/01/10 03:49:36;;;;;;;;;;;3.50;99.90;;;;;;5051950;28;19948;-65
2021/01/10 03:52:40;;;;;;;;;;;3.50;99.90;;;;;;5048377;28;20182;-64
2021/01/10 03:55:44;;;;;;;;;;;3.50;99.90;;;;;;5046395;28;19924;-64
2021/01/10 03:58:48;;;;;;;;;;;3.40;99.90;;;;;;5050352;28;20440;-65
2021/01/10 04:01:53;;;;;;;;;;;3.40;99.90;;;;;;5048521;28;20302;-65
2021/01/10 04:04:58;;;;;;;;;;;3.30;99.90;;;;;;5052802;28;19920;-64
2021/01/10 04:08:02;;;;;;;;;;;3.30;99.90;;;;;;5052218;28;19935;-63
2021/01/10 04:11:07;;;;;;;;;;;3.00;99.90;;;;;;5052157;28;19920;-64
2021/01/10 04:14:11;;;;;;;;;;;3.10;99.90;;;;;;5051949;28;19923;-65
2021/01/10 04:17:15;;;;;;;;;;;3.10;99.90;;;;;;5052093;28;19931;-65
2021/01/10 04:20:19;;;;;;;;;;;3.10;99.90;;;;;;5051849;28;19920;-64
2021/01/10 04:23:23;;;;;;;;;;;3.30;99.90;;;;;;5051614;28;19936;-65
2021/01/10 04:26:27;;;;;;;;;;;3.30;99.90;;;;;;5052254;28;20423;-64
2021/01/10 04:29:31;;;;;;;;;;;3.20;99.90;;;;;;5051113;28;19920;-65
2021/01/10 04:32:35;;;;;;;;;;;3.30;99.90;;;;;;5052079;28;19988;-65
2021/01/10 04:35:40;;;;;;;;;;;3.40;99.90;;;;;;5051256;28;19920;-64
2021/01/10 04:38:44;;;;;;;;;;;3.30;99.90;;;;;;5051457;28;19920;-64
2021/01/10 04:41:48;;;;;;;;;;;3.30;99.90;;;;;;5051353;28;19924;-65
2021/01/10 04:44:53;;;;;;;;;;;3.30;99.90;;;;;;5051396;28;20291;-65
2021/01/10 04:47:57;;;;;;;;;;;3.30;99.90;;;;;;5051538;28;19924;-65
2021/01/10 04:51:02;;;;;;;;;;;3.30;99.90;;;;;;5050904;28;19920;-64
2021/01/10 04:54:07;;;;;;;;;;;3.40;99.90;;;;;;5050902;28;20687;-66
2021/01/10 04:57:12;;;;;;;;;;;3.30;99.90;;;;;;5051276;28;19924;-64
2021/01/10 05:00:17;;;;;;;;;;;3.40;99.90;;;;;;5050099;28;19924;-64
2021/01/10 05:03:24;;;;;;;;;;;3.30;99.90;;;;;;5051437;28;19923;-65
2021/01/10 05:06:28;;;;;;;;;;;3.30;99.90;;;;;;5050912;28;19923;-64
2021/01/10 05:09:32;;;;;;;;;;;3.30;99.90;;;;;;5050720;28;19920;-65
2021/01/10 05:12:36;;;;;;;;;;;3.40;99.90;;;;;;5050796;28;20322;-65
2021/01/10 05:15:42;;;;;;;;;;;3.50;99.90;;;;;;5050734;28;19920;-66
2021/01/10 05:18:50;;;;;;;;;;;3.50;99.90;;;;;;5051224;28;20450;-65
2021/01/10 05:21:54;;;;;;;;;;;3.50;99.90;;;;;;5050145;28;20449;-65
2021/01/10 05:25:12;;;;;;;;;;;3.50;99.90;;;;;;5051262;28;19924;-64
2021/01/10 05:28:17;;;;;;;;;;;3.60;99.90;;;;;;5050825;28;20287;-64
2021/01/10 05:31:32;;;;;;;;;;;3.30;99.90;;;;;;5049632;28;19920;-64
2021/01/10 05:34:36;;;;;;;;;;;3.20;99.90;;;;;;5050744;28;20290;-64
2021/01/10 05:37:53;;;;;;;;;;;3.30;99.90;;;;;;5050175;28;19920;-64
2021/01/10 05:40:58;;;;;;;;;;;3.40;99.90;;;;;;5050009;28;19924;-65
2021/01/10 05:44:02;;;;;;;;;;;3.30;99.90;;;;;;5050551;28;19920;-64
2021/01/10 05:47:08;;;;;;;;;;;3.10;99.90;;;;;;5050712;28;19920;-65
2021/01/10 05:50:13;;;;;;;;;;;3.10;99.90;;;;;;5050005;28;20397;-64
2021/01/10 05:53:19;;;;;;;;;;;3.10;99.90;;;;;;5049973;28;19935;-65
2021/01/10 05:56:23;;;;;;;;;;;3.20;99.90;;;;;;5050202;28;19938;-64
2021/01/10 05:59:28;;;;;;;;;;;3.10;99.90;;;;;;5050420;28;19920;-65
2021/01/10 06:02:34;;;;;;;;;;;3.10;99.90;;;;;;5036360;28;20405;-64
2021/01/10 06:05:52;;;;;;;;;;;3.20;99.90;;;;;;5050414;28;19928;-64
2021/01/10 06:08:58;;;;;;;;;;;3.20;99.90;;;;;;5049585;28;20405;-65
2021/01/10 06:12:02;;;;;;;;;;;3.20;99.90;;;;;;5044280;28;19924;-65
2021/01/10 06:15:12;;;;;;;;;;;3.30;99.90;;;;;;5049286;28;20295;-65
2021/01/10 06:18:17;;;;;;;;;;;3.30;99.90;;;;;;5050077;28;19935;-62
2021/01/10 06:21:22;;;;;;;;;;;3.40;99.90;;;;;;5049403;28;19928;-63
2021/01/10 06:24:32;;;;;;;;;;;3.50;99.90;;;;;;5049388;28;19923;-64
2021/01/10 06:27:36;;;;;;;;;;;3.50;99.90;;;;;;5049674;28;19924;-65
2021/01/10 06:30:59;;;;;;;;;;;3.50;99.90;;;;;;5049250;28;19935;-64
2021/01/10 06:34:07;;;;;;;;;;;3.50;99.90;;;;;;5050117;28;20298;-65
2021/01/10 06:37:10;;;;;;;;;;;3.50;99.90;;;;;;5050148;28;19924;-64
2021/01/10 06:40:18;;;;;;;;;;;3.50;99.90;;;;;;5049902;28;19984;-65
2021/01/10 06:43:22;;;;;;;;;;;3.40;99.90;;;;;;5049917;28;19928;-65
2021/01/10 06:46:26;;;;;;;;;;;3.30;99.90;;;;;;5050037;28;19924;-65
2021/01/10 06:49:30;;;;;;;;;;;3.30;99.90;;;;;;5050098;28;20086;-64
2021/01/10 06:52:36;;;;;;;;;;;3.30;99.90;;;;;;5049616;28;20303;-64
2021/01/10 06:55:44;;;;;;;;;;;3.30;99.90;;;;;;5050028;28;20398;-64
2021/01/10 06:59:07;;;;;;;;;;;3.20;99.90;;;;;;5040158;28;20414;-65
2021/01/10 07:02:12;;;;;;;;;;;3.00;99.90;;;;;;5052717;28;19924;-63
2021/01/10 07:05:16;;;;;;;;;;;2.90;99.90;;;;;;5048094;28;19951;-65
2021/01/10 07:08:30;;;;;;;;;;;2.60;99.90;;;;;;5037117;28;19920;-65
2021/01/10 07:11:34;;;;;;;;;;;2.60;99.90;;;;;;5042047;28;19952;-65
2021/01/10 07:14:38;;;;;;;;;;;2.70;99.90;;;;;;5045821;28;20299;-64
2021/01/10 07:17:59;;;;;;;;;;;2.80;99.90;;;;;;5038137;28;19921;-65
2021/01/10 07:21:24;;;;;;;;;;;2.60;99.90;;;;;;5045025;28;19920;-66
2021/01/10 07:24:30;;;;;;;;;;;2.70;99.90;;;;;;5042494;28;19924;-65
2021/01/10 07:27:34;;;;;;;;;;;2.60;99.90;;;;;;5048132;28;19923;-65
2021/01/10 07:30:39;;;;;;;;;;;2.60;99.90;;;;;;5039280;28;19919;-65
2021/01/10 07:33:43;;;;;;;;;;;2.70;99.90;;;;;;5039537;28;19923;-62
2021/01/10 07:36:49;;;;;;;;;;;2.70;99.90;;;;;;5037613;28;19924;-64
2021/01/10 07:39:54;;;;;;;;;;;2.60;99.90;;;;;;5043436;28;19920;-63
2021/01/10 07:43:01;;;;;;;;;;;2.50;99.90;;;;;;5040385;28;19928;-63
2021/01/10 07:46:09;;;;;;;;;;;2.40;99.90;;;;;;5038905;28;20322;-65
2021/01/10 07:49:16;;;;;;;;;;;2.50;99.90;;;;;;5035264;28;19924;-64
2021/01/10 07:52:38;;;;;;;;;;;2.50;99.90;;;;;;5036684;28;19917;-65
2021/01/10 07:55:43;;;;;;;;;;;2.40;99.90;;;;;;5037163;28;19921;-64
2021/01/10 07:59:08;;;;;;;;;;;2.40;99.90;;;;;;5043162;28;19919;-65
2021/01/10 08:02:11;;;;;;;;;;;2.60;99.90;;;;;;5045271;28;19924;-65
2021/01/10 08:05:16;;;;;;;;;;;2.50;99.90;;;;;;5037665;28;20402;-65
2021/01/10 08:08:21;;;;;;;;;;;2.50;99.90;;;;;;5036843;28;19924;-65
2021/01/10 08:11:31;;;;;;;;;;;2.60;99.90;;;;;;5048315;28;19923;-63
2021/01/10 08:14:35;;;;;;;;;;;2.50;99.90;;;;;;5050688;28;20283;-63
2021/01/10 08:17:39;;;;;;;;;;;2.60;99.90;;;;;;5033396;28;19941;-63
2021/01/10 08:20:44;;;;;;;;;;;2.60;99.90;;;;;;5034061;28;20387;-65
2021/01/10 08:23:54;;;;;;;;;;;2.70;99.90;;;;;;5033352;28;19929;-65
2021/01/10 08:27:02;;;;;;;;;;;2.80;99.90;;;;;;5048120;28;19919;-64
2021/01/10 08:30:06;;;;;;;;;;;2.90;99.90;;;;;;5049805;28;19923;-66
2021/01/10 08:33:17;;;;;;;;;;;2.90;99.90;;;;;;5055996;28;19920;-65
2021/01/10 08:36:21;;;;;;;;;;;3.00;99.90;;;;;;5048462;28;19920;-65
2021/01/10 08:39:25;;;;;;;;;;;2.80;99.90;;;;;;5045924;28;19947;-65
2021/01/10 08:42:31;;;;;;;;;;;3.00;99.90;;;;;;5045372;28;19955;-63
2021/01/10 08:45:34;;;;;;;;;;;3.20;99.90;;;;;;5047447;28;19928;-65
2021/01/10 08:48:39;;;;;;;;;;;3.40;99.90;;;;;;5036292;28;19921;-65
2021/01/10 08:51:43;;;;;;;;;;;3.60;99.90;;;;;;5031857;28;19924;-65
2021/01/10 08:54:51;;;;;;;;;;;3.60;99.90;;;;;;5033682;28;20307;-65
2021/01/10 08:57:55;;;;;;;;;;;3.70;99.90;;;;;;5031610;28;19924;-63
2021/01/10 09:00:59;;;;;;;;;;;3.90;99.90;;;;;;5033541;28;19932;-64
2021/01/10 09:04:09;;;;;;;;;;;3.90;99.90;;;;;;5032982;28;19925;-64
2021/01/10 09:07:16;;;;;;;;;;;3.70;99.90;;;;;;5026054;28;19920;-65
2021/01/10 09:10:21;;;;;;;;;;;3.80;99.90;;;;;;5033821;28;19920;-65
2021/01/10 09:13:26;;;;;;;;;;;4.00;99.90;;;;;;5031479;28;19924;-65
2021/01/10 09:16:31;;;;;;;;;;;4.00;99.90;;;;;;5048418;28;19939;-65
2021/01/10 09:19:36;;;;;;;;;;;4.00;99.90;;;;;;5038558;28;19924;-64
2021/01/10 09:22:40;;;;;;;;;;;4.20;99.90;;;;;;5043708;28;19932;-65
2021/01/10 09:25:44;;;;;;;;;;;4.20;99.90;;;;;;5038556;28;19940;-66
2021/01/10 09:28:48;;;;;;;;;;;3.70;99.90;;;;;;5017839;28;19919;-64
2021/01/10 09:31:52;;;;;;;;;;;3.60;99.90;;;;;;5033010;28;20302;-64
2021/01/10 09:34:56;;;;;;;;;;;3.80;99.90;;;;;;5044707;28;19923;-65
2021/01/10 09:38:06;;;;;;;;;;;3.90;99.90;;;;;;5048029;28;19920;-65
2021/01/10 09:41:14;;;;;;;;;;;3.70;99.90;;;;;;5042884;28;20422;-64
2021/01/10 09:44:19;;;;;;;;;;;3.60;99.90;;;;;;5037736;28;19939;-66
2021/01/10 09:47:35;;;;;;;;;;;3.80;99.90;;;;;;5049637;28;19919;-65
2021/01/10 09:50:39;;;;;;;;;;;3.70;99.90;;;;;;5048845;28;20394;-63
2021/01/10 09:53:47;;;;;;;;;;;3.50;99.90;;;;;;5048477;28;20394;-63
2021/01/10 09:56:52;;;;;;;;;;;3.50;99.90;;;;;;5049602;28;19920;-64
2021/01/10 09:59:56;;;;;;;;;;;3.50;99.90;;;;;;5040916;28;19924;-65
2021/01/10 10:03:08;;;;;;;;;;;3.50;99.90;;;;;;5048761;28;19924;-65
2021/01/10 10:06:12;;;;;;;;;;;3.20;99.90;;;;;;5055786;28;19984;-65
2021/01/10 10:09:16;;;;;;;;;;;3.50;99.90;;;;;;5035264;28;20470;-64
2021/01/10 10:12:21;;;;;;;;;;;3.60;99.90;;;;;;5049679;28;19927;-64
2021/01/10 10:15:38;;;;;;;;;;;3.60;99.90;;;;;;5049088;28;19928;-64
2021/01/10 10:18:43;;;;;;;;;;;3.60;99.90;;;;;;5042203;28;19956;-65
2021/01/10 10:21:47;;;;;;;;;;;3.60;99.90;;;;;;5038000;28;20505;-64
2021/01/10 10:24:52;;;;;;;;;;;3.80;99.90;;;;;;5046029;28;19919;-65
2021/01/10 10:28:00;;;;;;;;;;;4.00;99.90;;;;;;5042085;28;19936;-64
2021/01/10 10:31:04;;;;;;;;;;;3.90;99.90;;;;;;5046414;28;19920;-64
2021/01/10 10:34:08;;;;;;;;;;;4.10;99.90;;;;;;5035491;28;19920;-65
2021/01/10 10:37:13;;;;;;;;;;;4.30;99.90;;;;;;5033280;28;19919;-65
2021/01/10 10:40:18;;;;;;;;;;;4.40;99.90;;;;;;5053646;28;19920;-65
2021/01/10 10:43:22;;;;;;;;;;;4.20;99.90;;;;;;5043296;28;19923;-64
2021/01/10 10:46:31;;;;;;;;;;;4.40;99.90;;;;;;5049241;28;19928;-65
2021/01/10 10:49:35;;;;;;;;;;;4.50;99.90;;;;;;5039876;28;19924;-64
2021/01/10 10:52:40;;;;;;;;;;;4.50;99.90;;;;;;5036468;28;19924;-65
2021/01/10 10:55:44;;;;;;;;;;;4.60;99.90;;;;;;5047049;28;20433;-65
2021/01/10 10:58:48;;;;;;;;;;;4.80;99.90;;;;;;5044145;28;20399;-65
2021/01/10 11:01:53;;;;;;;;;;;4.90;99.90;;;;;;5029961;28;19924;-64
2021/01/10 11:04:56;;;;;;;;;;;4.90;99.90;;;;;;5034561;28;19920;-65
2021/01/10 11:08:01;;;;;;;;;;;5.00;99.90;;;;;;5043227;28;19984;-64
2021/01/10 11:11:04;;;;;;;;;;;5.00;99.90;;;;;;5043883;28;19924;-65
2021/01/10 11:14:09;;;;;;;;;;;5.10;99.90;;;;;;5045623;28;19920;-64
2021/01/10 11:17:14;;;;;;;;;;;5.20;99.90;;;;;;5044006;28;19920;-65
2021/01/10 11:20:18;;;;;;;;;;;5.40;99.90;;;;;;5037884;28;19936;-64
2021/01/10 11:23:22;;;;;;;;;;;5.50;99.90;;;;;;5043657;28;19924;-67
2021/01/10 11:26:26;;;;;;;;;;;5.40;99.90;;;;;;5041773;28;19924;-66
2021/01/10 11:29:30;;;;;;;;;;;5.30;99.90;;;;;;5044292;28;19940;-65
2021/01/10 11:32:34;;;;;;;;;;;5.50;99.90;;;;;;5035911;28;19921;-66
2021/01/10 11:35:39;;;;;;;;;;;5.50;99.90;;;;;;5036787;28;19920;-66
2021/01/10 11:38:42;;;;;;;;;;;5.50;99.90;;;;;;5044852;28;19924;-66
2021/01/10 11:41:51;;;;;;;;;;;5.50;99.90;;;;;;5041786;28;19920;-66
2021/01/10 11:44:55;;;;;;;;;;;5.50;99.90;;;;;;5047547;28;19927;-64
2021/01/10 11:48:00;;;;;;;;;;;5.40;99.90;;;;;;5049050;28;19924;-66
2021/01/10 11:51:05;;;;;;;;;;;5.30;99.90;;;;;;5049520;28;20431;-65
2021/01/10 11:54:12;;;;;;;;;;;5.20;99.90;;;;;;5049202;28;19920;-65
2021/01/10 11:57:18;;;;;;;;;;;5.10;99.90;;;;;;5047028;28;19919;-65
2021/01/10 12:00:22;;;;;;;;;;;5.00;99.90;;;;;;5043880;28;20374;-66
2021/01/10 12:03:26;;;;;;;;;;;5.20;99.90;;;;;;5051410;28;19936;-65
2021/01/10 12:06:30;;;;;;;;;;;4.80;99.90;;;;;;5044156;28;19928;-65
2021/01/10 12:09:34;;;;;;;;;;;4.80;99.90;;;;;;5061193;28;19923;-66
2021/01/10 12:12:38;;;;;;;;;;;4.70;99.90;;;;;;5043100;28;19924;-67
2021/01/10 12:15:44;;;;;;;;;;;4.70;99.90;;;;;;5045116;28;19919;-66
2021/01/10 12:18:48;;;;;;;;;;;4.80;99.90;;;;;;5041009;28;19923;-65
2021/01/10 12:21:52;;;;;;;;;;;5.10;99.90;;;;;;5049217;28;19923;-66
2021/01/10 12:24:57;;;;;;;;;;;5.10;99.90;;;;;;5049983;28;19920;-66
2021/01/10 12:28:01;;;;;;;;;;;5.10;99.90;;;;;;5036685;28;19920;-66
2021/01/10 12:31:05;;;;;;;;;;;5.10;99.90;;;;;;5034115;28;19924;-65
2021/01/10 12:34:09;;;;;;;;;;;5.00;99.90;;;;;;5040975;28;20295;-66
2021/01/10 12:37:17;;;;;;;;;;;5.00;99.90;;;;;;5034254;28;19928;-64
2021/01/10 12:40:21;;;;;;;;;;;5.20;99.90;;;;;;5038079;28;20394;-66
2021/01/10 12:43:25;;;;;;;;;;;5.20;99.90;;;;;;5041978;28;20351;-66
2021/01/10 12:46:30;;;;;;;;;;;5.20;99.90;;;;;;5028829;28;19980;-66
2021/01/10 12:49:33;;;;;;;;;;;5.20;99.90;;;;;;5033423;28;19920;-66
2021/01/10 12:52:37;;;;;;;;;;;5.20;99.90;;;;;;5030452;28;19924;-66
2021/01/10 12:55:41;;;;;;;;;;;5.10;99.90;;;;;;5034901;28;19920;-65
2021/01/10 12:58:45;;;;;;;;;;;5.20;99.90;;;;;;5041865;28;19920;-64
2021/01/10 13:01:49;;;;;;;;;;;5.20;99.90;;;;;;5042943;28;19927;-66
2021/01/10 13:04:53;;;;;;;;;;;5.20;99.90;;;;;;5030732;28;19925;-64
2021/01/10 13:07:59;;;;;;;;;;;5.30;99.90;;;;;;5035501;28;19936;-65
2021/01/10 13:11:03;;;;;;;;;;;5.20;99.90;;;;;;5049134;28;19923;-66
2021/01/10 13:14:07;;;;;;;;;;;5.30;99.90;;;;;;5048840;28;19920;-66
2021/01/10 13:17:11;;;;;;;;;;;5.30;99.90;;;;;;5050845;28;19922;-66
2021/01/10 13:20:15;;;;;;;;;;;5.30;99.90;;;;;;5037367;28;20395;-65
2021/01/10 13:23:19;;;;;;;;;;;5.30;99.90;;;;;;5039430;28;19992;-65
2021/01/10 13:26:24;;;;;;;;;;;5.40;99.90;;;;;;5044703;28;19919;-64
2021/01/10 13:29:28;;;;;;;;;;;5.50;99.90;;;;;;5037453;28;19928;-66
2021/01/10 13:32:32;;;;;;;;;;;5.60;99.90;;;;;;5044898;28;19923;-65
2021/01/10 13:35:36;;;;;;;;;;;5.60;99.90;;;;;;5034426;28;19924;-65
2021/01/10 13:38:39;;;;;;;;;;;5.60;99.90;;;;;;5034021;28;19923;-65
2021/01/10 13:41:43;;;;;;;;;;;5.60;99.90;;;;;;5033096;28;19936;-64
2021/01/10 13:44:47;;;;;;;;;;;5.70;99.90;;;;;;5039851;28;20406;-65
2021/01/10 13:47:51;;;;;;;;;;;5.70;99.90;;;;;;5042907;28;19919;-65
2021/01/10 13:50:55;;;;;;;;;;;5.60;99.90;;;;;;5032790;28;20035;-65
2021/01/10 13:53:59;;;;;;;;;;;5.60;99.90;;;;;;5034240;28;20418;-66
2021/01/10 13:57:04;;;;;;;;;;;5.60;99.90;;;;;;5043753;28;20287;-65
2021/01/10 14:00:14;;;;;;;;;;;5.70;99.90;;;;;;5035009;28;20441;-64
2021/01/10 14:03:17;;;;;;;;;;;5.60;99.90;;;;;;5049232;28;19923;-65
2021/01/10 14:06:22;;;;;;;;;;;5.60;99.90;;;;;;5039729;28;19920;-65
2021/01/10 14:09:26;;;;;;;;;;;5.50;99.90;;;;;;5048465;28;19939;-65
2021/01/10 14:12:30;;;;;;;;;;;5.40;99.90;;;;;;5048275;28;19931;-66
2021/01/10 14:15:35;;;;;;;;;;;5.30;99.90;;;;;;5045626;28;19923;-65
2021/01/10 14:18:39;;;;;;;;;;;5.40;99.90;;;;;;5048383;28;19920;-64
2021/01/10 14:21:43;;;;;;;;;;;5.40;99.90;;;;;;5048481;28;20394;-65
2021/01/10 14:24:47;;;;;;;;;;;5.40;99.90;;;;;;5031523;28;19928;-64
2021/01/10 14:27:51;;;;;;;;;;;5.50;99.90;;;;;;5040824;28;19923;-66
2021/01/10 14:30:55;;;;;;;;;;;5.50;99.90;;;;;;5038493;28;20354;-64
2021/01/10 14:33:59;;;;;;;;;;;5.40;99.90;;;;;;5043686;28;20426;-66
2021/01/10 14:37:03;;;;;;;;;;;5.50;99.90;;;;;;5041822;28;19920;-64
2021/01/10 14:40:08;;;;;;;;;;;5.60;99.90;;;;;;5039900;28;19920;-64
2021/01/10 14:43:13;;;;;;;;;;;5.60;99.90;;;;;;5040028;28;19923;-65
2021/01/10 14:46:21;;;;;;;;;;;5.40;99.90;;;;;;5043920;28;19924;-64
2021/01/10 14:49:25;;;;;;;;;;;5.50;99.90;;;;;;5045127;28;19919;-65
2021/01/10 14:52:29;;;;;;;;;;;5.40;99.90;;;;;;5047346;28;19920;-65
2021/01/10 14:55:33;;;;;;;;;;;5.20;99.90;;;;;;5044470;28;19924;-65
2021/01/10 14:58:38;;;;;;;;;;;5.30;99.90;;;;;;5039707;28;20489;-66
2021/01/10 15:01:42;;;;;;;;;;;5.20;99.90;;;;;;5041179;28;20298;-66
2021/01/10 15:04:46;;;;;;;;;;;5.10;99.90;;;;;;5044963;28;20425;-63
2021/01/10 15:07:50;;;;;;;;;;;5.20;99.90;;;;;;5041431;28;19920;-65
2021/01/10 15:10:53;;;;;;;;;;;5.20;99.90;;;;;;5036170;28;19924;-65
2021/01/10 15:13:58;;;;;;;;;;;5.10;99.90;;;;;;5040926;28;19928;-65
2021/01/10 15:17:02;;;;;;;;;;;5.20;99.90;;;;;;5041394;28;19920;-65
2021/01/10 15:20:06;;;;;;;;;;;5.20;99.90;;;;;;5048537;28;20394;-64
2021/01/10 15:23:10;;;;;;;;;;;5.20;99.90;;;;;;5047416;28;19940;-66
2021/01/10 15:26:14;;;;;;;;;;;5.00;99.90;;;;;;5039905;28;20275;-66
2021/01/10 15:29:19;;;;;;;;;;;4.90;99.90;;;;;;5042698;28;19928;-65
2021/01/10 15:32:23;;;;;;;;;;;5.00;99.90;;;;;;5042320;28;20032;-64
2021/01/10 15:35:27;;;;;;;;;;;5.10;99.90;;;;;;5046135;28;19920;-64
2021/01/10 15:38:31;;;;;;;;;;;4.90;99.90;;;;;;5045809;28;19920;-66
2021/01/10 15:41:36;;;;;;;;;;;4.80;99.90;;;;;;5045896;28;19924;-64
2021/01/10 15:44:40;;;;;;;;;;;4.60;99.90;;;;;;5048207;28;19928;-66
2021/01/10 15:47:44;;;;;;;;;;;4.40;99.90;;;;;;5047715;28;19920;-64
2021/01/10 15:50:48;;;;;;;;;;;4.30;99.90;;;;;;5043001;28;19923;-66
2021/01/10 15:53:52;;;;;;;;;;;4.30;99.90;;;;;;5040262;28;19936;-66
2021/01/10 15:56:56;;;;;;;;;;;4.20;99.90;;;;;;5042756;28;19920;-66
2021/01/10 16:00:00;;;;;;;;;;;4.20;99.90;;;;;;5048569;28;20485;-64
2021/01/10 16:03:04;;;;;;;;;;;4.20;99.90;;;;;;5042107;28;19988;-64
2021/01/10 16:06:08;;;;;;;;;;;4.30;99.90;;;;;;5039772;28;19920;-65
2021/01/10 16:09:12;;;;;;;;;;;4.60;99.90;;;;;;5037312;28;19924;-65
2021/01/10 16:12:16;;;;;;;;;;;4.70;99.90;;;;;;5043710;28;20438;-64
2021/01/10 16:15:21;;;;;;;;;;;4.60;99.90;;;;;;5044689;28;19919;-65
2021/01/10 16:18:25;;;;;;;;;;;4.60;99.90;;;;;;5045253;28;19921;-64
2021/01/10 16:21:30;;;;;;;;;;;4.50;99.90;;;;;;5045968;28;20481;-64
2021/01/10 16:24:34;;;;;;;;;;;4.60;99.90;;;;;;5031168;28;19925;-62
2021/01/10 16:27:38;;;;;;;;;;;4.60;99.90;;;;;;5038630;28;19920;-66
2021/01/10 16:30:42;;;;;;;;;;;4.60;99.90;;;;;;5036836;28;19924;-64
2021/01/10 16:33:46;;;;;;;;;;;4.30;99.90;;;;;;5038348;28;19924;-64
2021/01/10 16:36:50;;;;;;;;;;;4.10;99.90;;;;;;5018157;28;20441;-64
2021/01/10 16:39:55;;;;;;;;;;;4.10;99.90;;;;;;5029510;28;19924;-65
2021/01/10 16:43:18;;;;;;;;;;;4.20;99.90;;;;;;5033580;28;19956;-64
2021/01/10 16:46:22;;;;;;;;;;;4.00;99.90;;;;;;5029837;28;19928;-66
2021/01/10 16:49:26;;;;;;;;;;;4.00;99.90;;;;;;5038494;28;19928;-65
2021/01/10 16:52:30;;;;;;;;;;;4.00;99.90;;;;;;5047606;28;19971;-65
2021/01/10 16:55:35;;;;;;;;;;;4.00;99.90;;;;;;5047282;28;19984;-65
2021/01/10 16:58:39;;;;;;;;;;;3.90;99.90;;;;;;5039757;28;19928;-66
2021/01/10 17:01:44;;;;;;;;;;;3.90;99.90;;;;;;5049398;28;19920;-65
2021/01/10 17:04:49;;;;;;;;;;;4.00;99.90;;;;;;5044437;28;19923;-65
2021/01/10 17:11:15;;;;;;;;;;;4.00;99.90;;;;;;5044495;28;19924;-66
2021/01/10 17:14:19;;;;;;;;;;;3.90;99.90;;;;;;5043089;28;19920;-65
2021/01/10 17:17:30;;;;;;;;;;;3.90;99.90;;;;;;5039151;28;19940;-66
2021/01/10 17:20:34;;;;;;;;;;;3.80;99.90;;;;;;5035065;28;19940;-64
2021/01/10 17:23:41;;;;;;;;;;;3.80;99.90;;;;;;5031178;28;19924;-65
2021/01/10 17:26:45;;;;;;;;;;;3.80;99.90;;;;;;5034697;28;19927;-65
2021/01/10 17:29:51;;;;;;;;;;;3.90;99.90;;;;;;5048881;28;19924;-65
2021/01/10 17:32:56;;;;;;;;;;;3.80;99.90;;;;;;5038589;28;19928;-64
2021/01/10 17:36:00;;;;;;;;;;;3.80;99.90;;;;;;5031147;28;20319;-65
2021/01/10 17:39:05;;;;;;;;;;;3.80;99.90;;;;;;5031604;28;20491;-66
2021/01/10 17:42:09;;;;;;;;;;;3.80;99.90;;;;;;5041840;28;19919;-66
2021/01/10 17:45:13;;;;;;;;;;;3.70;99.90;;;;;;5047748;28;20299;-65
2021/01/10 17:48:18;;;;;;;;;;;3.70;99.90;;;;;;5044557;28;20298;-66
2021/01/10 17:51:26;;;;;;;;;;;3.60;99.90;;;;;;5049747;28;19924;-64
2021/01/10 17:54:30;;;;;;;;;;;3.60;99.90;;;;;;5037474;28;19954;-65
2021/01/10 17:57:34;;;;;;;;;;;3.50;99.90;;;;;;5032050;28;19936;-66
2021/01/10 18:00:39;;;;;;;;;;;3.60;99.90;;;;;;5039886;28;19924;-65
2021/01/10 18:03:43;;;;;;;;;;;3.50;99.90;;;;;;5030974;28;19955;-64
2021/01/10 18:06:47;;;;;;;;;;;3.50;99.90;;;;;;5029443;28;19928;-65
2021/01/10 18:09:51;;;;;;;;;;;3.60;99.90;;;;;;5030513;28;19924;-65
2021/01/10 18:12:55;;;;;;;;;;;3.60;99.90;;;;;;5039058;28;19928;-65
2021/01/10 18:15:59;;;;;;;;;;;3.50;99.90;;;;;;5035863;28;20450;-65
2021/01/10 18:19:05;;;;;;;;;;;3.50;99.90;;;;;;5032980;28;19951;-64